Time;durP1;ratioP1;P1;durP2;ratioP2;P2;SDS_P1;SDS_P2;PMS_P1;PMS_P2;Temp;Humidity;BMP_temperature;BMP_pressure;BME280_temperature;BME280_humidity;BME280_pressure;Samples;Min_cycle;Max_cycle;Signal;HPM_P1;HPM_P2
2023/05/07 00:01:28;;;;;;;14.32;4.47;;;;;;;14.04;81.73;100596.94;5090851;28;20052;-46
2023/05/07 00:03:55;;;;;;;9.85;4.10;;;;;;;14.02;81.67;100594.56;5106425;28;20047;-44
2023/05/07 00:06:22;;;;;;;11.50;4.15;;;;;;;13.99;81.97;100602.84;5109644;28;20528;-44
2023/05/07 00:08:49;;;;;;;10.60;3.95;;;;;;;13.94;82.22;100606.75;5108862;28;20073;-44
2023/05/07 00:11:16;;;;;;;11.13;3.47;;;;;;;13.92;82.22;100606.31;5109078;28;20122;-44
2023/05/07 00:13:42;;;;;;;6.88;3.33;;;;;;;13.91;82.32;100613.03;5108919;28;20401;-46
2023/05/07 00:16:09;;;;;;;15.18;3.85;;;;;;;13.90;82.37;100599.47;5109462;28;20554;-44
2023/05/07 00:18:36;;;;;;;10.18;3.67;;;;;;;13.89;82.55;100600.69;5104324;28;20052;-47
2023/05/07 00:21:03;;;;;;;8.85;3.50;;;;;;;13.88;82.65;100605.44;5109167;28;20043;-52
2023/05/07 00:23:30;;;;;;;14.77;4.05;;;;;;;13.85;82.62;100606.16;5108744;28;20126;-45
2023/05/07 00:25:56;;;;;;;10.57;3.63;;;;;;;13.80;82.78;100605.66;5105519;28;20534;-44
2023/05/07 00:28:26;;;;;;;11.15;3.83;;;;;;;13.79;82.93;100606.84;5096146;28;20058;-44
2023/05/07 00:30:52;;;;;;;12.45;3.50;;;;;;;13.74;82.87;100601.59;5090434;28;20065;-44
2023/05/07 00:33:20;;;;;;;16.00;4.75;;;;;;;13.68;83.17;100606.66;5105627;28;20042;-46
2023/05/07 00:35:47;;;;;;;9.90;3.25;;;;;;;13.63;83.09;100618.09;5108457;28;20044;-45
2023/05/07 00:38:15;;;;;;;8.80;3.63;;;;;;;13.60;83.25;100616.06;5091082;28;20040;-43
2023/05/07 00:40:41;;;;;;;11.07;3.72;;;;;;;13.55;83.38;100616.34;5090169;28;20051;-44
2023/05/07 00:43:08;;;;;;;15.40;4.57;;;;;;;13.54;83.66;100622.28;5103442;28;20127;-43
2023/05/07 00:45:35;;;;;;;13.98;5.03;;;;;;;13.47;83.83;100611.00;5108864;28;20047;-44
2023/05/07 00:48:03;;;;;;;14.13;4.00;;;;;;;13.45;84.11;100610.59;5107984;28;20039;-46
2023/05/07 00:50:31;;;;;;;13.77;4.38;;;;;;;13.45;84.15;100622.50;5108795;28;20047;-43
2023/05/07 00:52:58;;;;;;;11.32;4.03;;;;;;;13.46;84.58;100617.75;5104528;28;20717;-44
2023/05/07 00:55:25;;;;;;;6.75;4.20;;;;;;;13.49;84.57;100619.78;5107027;28;20047;-47
2023/05/07 00:57:52;;;;;;;10.60;4.15;;;;;;;13.54;84.61;100627.84;5103519;28;20505;-44
2023/05/07 01:00:19;;;;;;;15.13;4.25;;;;;;;13.56;84.68;100611.56;5104134;28;20397;-44
2023/05/07 01:02:46;;;;;;;8.70;4.32;;;;;;;13.57;84.68;100622.34;5111415;28;20734;-50
2023/05/07 01:05:16;;;;;;;8.48;3.63;;;;;;;13.60;85.04;100607.72;5108240;28;20424;-44
2023/05/07 01:07:44;;;;;;;13.93;4.47;;;;;;;13.61;85.10;100623.19;5106150;28;20036;-45
2023/05/07 01:10:12;;;;;;;11.73;4.07;;;;;;;13.65;85.12;100623.28;5087639;28;20035;-48
2023/05/07 01:12:41;;;;;;;14.68;4.05;;;;;;;13.66;85.13;100625.69;5108808;28;20093;-45
2023/05/07 01:15:09;;;;;;;8.38;3.45;;;;;;;13.68;85.29;100617.78;5108497;28;20043;-44
2023/05/07 01:17:37;;;;;;;9.52;3.63;;;;;;;13.68;85.47;100614.19;5112385;28;20043;-43
2023/05/07 01:20:06;;;;;;;13.05;3.28;;;;;;;13.69;85.31;100616.59;5112745;28;20043;-49
2023/05/07 01:22:36;;;;;;;10.77;3.08;;;;;;;13.69;85.50;100611.03;5112655;28;20047;-44
2023/05/07 01:25:04;;;;;;;10.95;3.35;;;;;;;13.69;85.42;100615.78;5112958;27;20070;-44
2023/05/07 01:27:33;;;;;;;10.85;3.00;;;;;;;13.66;85.49;100625.69;5112615;28;20066;-44
2023/05/07 01:30:00;;;;;;;7.50;3.35;;;;;;;13.65;85.62;100635.22;5099154;28;20032;-44
2023/05/07 01:32:45;;;;;;;9.27;3.65;;;;;;;13.66;85.83;100630.47;5112193;28;20055;-44
2023/05/07 01:35:19;;;;;;;8.65;3.70;;;;;;;13.65;85.63;100629.66;5102110;28;20062;-44
2023/05/07 01:37:47;;;;;;;7.82;3.35;;;;;;;13.63;86.01;100629.22;5111816;28;20036;-44
2023/05/07 01:40:14;;;;;;;11.18;3.03;;;;;;;13.59;85.97;100631.13;5112766;28;20046;-43
2023/05/07 01:42:43;;;;;;;8.80;3.17;;;;;;;13.58;86.37;100621.16;5112423;28;20447;-43
2023/05/07 01:45:10;;;;;;;12.90;3.05;;;;;;;13.57;86.14;100633.47;5111883;28;20073;-44
2023/05/07 01:47:37;;;;;;;11.35;3.72;;;;;;;13.56;86.07;100634.63;5112243;28;20055;-43
2023/05/07 01:50:09;;;;;;;12.18;5.25;;;;;;;13.55;86.31;100624.69;5111316;28;20039;-47
2023/05/07 01:52:38;;;;;;;10.45;3.33;;;;;;;13.52;86.35;100627.41;5111666;28;20051;-47
2023/05/07 01:55:06;;;;;;;6.38;3.00;;;;;;;13.52;86.58;100628.22;5112153;28;20527;-44
2023/05/07 01:57:33;;;;;;;8.63;3.63;;;;;;;13.52;86.52;100631.00;5112056;27;20477;-44
2023/05/07 01:59:59;;;;;;;7.32;3.63;;;;;;;13.52;86.73;100628.22;5111581;28;20134;-43
2023/05/07 02:02:26;;;;;;;5.45;2.70;;;;;;;13.52;86.68;100635.75;5093295;28;20044;-47
2023/05/07 02:04:53;;;;;;;11.65;3.22;;;;;;;13.51;86.72;100629.38;5111727;28;20035;-43
2023/05/07 02:07:20;;;;;;;8.02;3.47;;;;;;;13.50;86.88;100632.53;5104501;28;20055;-47
2023/05/07 02:09:47;;;;;;;10.45;3.15;;;;;;;13.52;87.02;100650.47;5111566;28;20069;-44
2023/05/07 02:12:13;;;;;;;13.13;3.65;;;;;;;13.53;86.83;100642.94;5111453;28;20104;-45
2023/05/07 02:14:40;;;;;;;12.35;3.20;;;;;;;13.52;86.68;100650.47;5073103;28;20135;-44
2023/05/07 02:17:07;;;;;;;8.85;3.00;;;;;;;13.54;86.52;100644.53;5111114;28;20067;-43
2023/05/07 02:19:35;;;;;;;9.07;3.38;;;;;;;13.54;86.77;100647.31;5111170;28;20138;-46
2023/05/07 02:22:01;;;;;;;9.77;3.35;;;;;;;13.53;86.71;100652.06;5111570;28;20123;-43
2023/05/07 02:24:28;;;;;;;8.77;3.80;;;;;;;13.52;86.82;100650.47;5107570;28;20181;-46
2023/05/07 02:26:55;;;;;;;7.63;2.97;;;;;;;13.55;86.76;100651.69;5110318;28;20046;-44
2023/05/07 02:29:22;;;;;;;7.65;3.53;;;;;;;13.54;86.57;100648.09;5110555;28;20049;-51
2023/05/07 02:31:52;;;;;;;9.93;3.75;;;;;;;13.53;86.44;100649.28;5111765;27;20090;-44
2023/05/07 02:34:20;;;;;;;7.47;3.42;;;;;;;13.50;86.67;100646.44;5110408;28;20035;-46
2023/05/07 02:36:46;;;;;;;10.20;3.22;;;;;;;13.49;86.50;100642.03;5105638;28;20079;-43
2023/05/07 02:39:14;;;;;;;10.55;3.50;;;;;;;13.46;86.59;100648.34;5107425;28;20058;-43
2023/05/07 02:41:40;;;;;;;9.70;3.28;;;;;;;13.43;86.85;100644.31;5109633;28;20581;-47
2023/05/07 02:44:07;;;;;;;10.23;3.38;;;;;;;13.43;87.00;100641.53;5106217;28;20065;-43
2023/05/07 02:46:34;;;;;;;5.65;3.25;;;;;;;13.43;86.94;100644.31;5105604;28;20040;-50
2023/05/07 02:49:01;;;;;;;7.20;3.35;;;;;;;13.42;86.87;100637.16;5101191;28;20046;-43
2023/05/07 02:51:28;;;;;;;13.13;2.90;;;;;;;13.40;86.84;100642.25;5107660;28;20039;-44
2023/05/07 02:53:55;;;;;;;8.55;3.13;;;;;;;13.34;86.85;100640.97;5106887;28;20047;-43
2023/05/07 02:56:22;;;;;;;6.20;2.90;;;;;;;13.26;87.12;100648.31;5110329;28;20051;-43
2023/05/07 02:58:48;;;;;;;7.75;3.63;;;;;;;13.23;87.49;100645.50;5107407;28;20079;-43
2023/05/07 03:01:15;;;;;;;11.20;3.53;;;;;;;13.20;87.47;100646.22;5107456;22;20141;-43
2023/05/07 03:03:42;;;;;;;8.98;3.33;;;;;;;13.15;87.62;100644.53;5066088;28;20037;-47
2023/05/07 03:06:09;;;;;;;12.98;3.20;;;;;;;13.11;87.82;100640.06;5068246;28;20498;-43
2023/05/07 03:08:36;;;;;;;9.68;3.40;;;;;;;13.07;88.17;100640.00;5066136;28;20082;-44
2023/05/07 03:11:03;;;;;;;14.48;3.40;;;;;;;13.03;88.28;100644.63;5070300;28;20037;-45
2023/05/07 03:13:30;;;;;;;8.07;3.33;;;;;;;12.99;88.07;100642.94;5066991;28;20036;-44
2023/05/07 03:15:57;;;;;;;7.63;3.63;;;;;;;12.94;88.26;100651.56;5066745;28;20080;-44
2023/05/07 03:18:23;;;;;;;8.32;3.17;;;;;;;12.90;88.51;100656.22;5066457;28;20091;-44
2023/05/07 03:20:51;;;;;;;5.85;3.17;;;;;;;12.91;88.58;100653.09;5050214;28;20115;-44
2023/05/07 03:23:18;;;;;;;5.45;3.08;;;;;;;12.91;88.64;100655.06;5066110;28;20048;-43
2023/05/07 03:25:45;;;;;;;13.57;4.43;;;;;;;12.89;88.84;100658.22;5070053;28;20041;-45
2023/05/07 03:28:12;;;;;;;7.47;3.38;;;;;;;12.89;89.01;100661.00;5067334;28;20043;-43
2023/05/07 03:30:38;;;;;;;15.05;3.60;;;;;;;12.90;89.10;100659.00;5063122;28;20091;-48
2023/05/07 03:33:05;;;;;;;5.85;3.28;;;;;;;12.92;89.11;100656.69;5068209;28;20086;-44
2023/05/07 03:35:32;;;;;;;9.85;3.40;;;;;;;12.96;89.26;100663.94;5067258;28;20063;-49
2023/05/07 03:37:59;;;;;;;5.28;3.45;;;;;;;12.97;89.22;100665.56;5065254;28;20494;-45
2023/05/07 03:40:25;;;;;;;5.50;3.40;;;;;;;12.98;89.36;100661.59;5054037;28;20055;-46
2023/05/07 03:42:52;;;;;;;7.32;3.00;;;;;;;13.01;89.27;100668.41;5045777;28;20422;-43
2023/05/07 03:45:19;;;;;;;9.50;3.00;;;;;;;13.01;88.99;100669.22;5065868;28;20044;-44
2023/05/07 03:47:46;;;;;;;7.47;3.47;;;;;;;13.01;89.17;100665.63;5048265;28;20388;-47
2023/05/07 03:50:13;;;;;;;9.20;3.08;;;;;;;13.01;89.21;100668.41;5067513;28;20139;-43
2023/05/07 03:52:40;;;;;;;11.65;3.70;;;;;;;13.02;89.04;100672.81;5066522;28;20690;-46
2023/05/07 03:55:08;;;;;;;8.77;2.83;;;;;;;13.03;88.86;100675.19;5066349;28;20037;-49
2023/05/07 03:57:34;;;;;;;8.32;3.15;;;;;;;13.05;88.67;100681.19;5063345;28;20070;-46
2023/05/07 04:00:01;;;;;;;9.35;2.95;;;;;;;13.04;88.64;100676.81;5046172;28;20041;-44
2023/05/07 04:02:28;;;;;;;9.93;2.90;;;;;;;13.05;88.32;100680.41;5060600;28;20053;-45
2023/05/07 04:04:56;;;;;;;7.80;2.70;;;;;;;13.04;88.32;100684.34;5063394;28;20040;-43
2023/05/07 04:07:22;;;;;;;6.00;3.17;;;;;;;13.04;88.19;100679.59;5067609;28;20094;-43
2023/05/07 04:09:49;;;;;;;4.72;2.33;;;;;;;13.04;88.20;100678.78;5066811;28;20055;-45
2023/05/07 04:12:16;;;;;;;5.88;3.47;;;;;;;13.03;88.12;100675.19;5067360;28;20063;-49
2023/05/07 04:14:43;;;;;;;4.95;2.60;;;;;;;13.03;87.94;100679.94;5066100;28;20044;-45
2023/05/07 04:17:10;;;;;;;5.80;2.42;;;;;;;13.02;88.17;100673.59;5068603;28;20080;-44
2023/05/07 04:19:37;;;;;;;5.78;2.83;;;;;;;13.02;87.88;100667.25;5068869;28;20048;-47
2023/05/07 04:22:04;;;;;;;7.50;1.92;;;;;;;13.01;88.05;100665.63;5069372;28;20056;-44
2023/05/07 04:24:32;;;;;;;6.40;2.95;;;;;;;13.04;88.07;100685.16;5072263;28;20131;-43
2023/05/07 04:26:59;;;;;;;4.22;2.22;;;;;;;13.07;87.77;100686.44;5068729;28;20051;-43
2023/05/07 04:29:26;;;;;;;7.63;2.53;;;;;;;13.09;87.54;100689.66;5068655;28;20101;-45
2023/05/07 04:31:55;;;;;;;8.10;2.58;;;;;;;13.07;87.68;100692.81;5065608;28;20045;-43
2023/05/07 04:34:22;;;;;;;3.45;2.45;;;;;;;13.07;87.19;100692.00;5065373;28;20102;-49
2023/05/07 04:36:49;;;;;;;7.70;2.70;;;;;;;13.05;87.43;100699.88;5068684;28;20033;-47
2023/05/07 04:39:16;;;;;;;8.48;2.78;;;;;;;13.02;87.48;100689.47;5065357;28;20068;-44
2023/05/07 04:41:42;;;;;;;7.10;2.35;;;;;;;13.00;87.60;100691.81;5066703;28;20563;-43
2023/05/07 04:44:10;;;;;;;7.68;2.47;;;;;;;12.99;87.69;100688.22;5067521;28;20049;-46
2023/05/07 04:46:37;;;;;;;8.40;2.55;;;;;;;13.04;87.42;100699.06;5065216;28;20060;-43
2023/05/07 04:49:05;;;;;;;6.70;2.65;;;;;;;13.07;87.44;100703.13;5061973;28;20048;-43
2023/05/07 04:51:32;;;;;;;6.70;2.80;;;;;;;13.05;87.10;100703.44;5068361;28;20143;-43
2023/05/07 04:53:59;;;;;;;10.00;3.90;;;;;;;13.05;86.95;100705.44;5071724;28;20055;-45
2023/05/07 04:56:28;;;;;;;6.10;2.40;;;;;;;13.05;87.30;100694.31;5066359;28;20493;-45
2023/05/07 04:58:55;;;;;;;6.65;3.65;;;;;;;13.07;87.04;100703.13;5069657;28;20076;-43
2023/05/07 05:01:22;;;;;;;4.45;2.47;;;;;;;13.09;86.86;100700.78;5066068;28;20125;-44
2023/05/07 05:03:49;;;;;;;6.00;2.20;;;;;;;13.05;86.83;100697.88;5058792;28;20430;-44
2023/05/07 05:06:16;;;;;;;5.53;2.50;;;;;;;13.06;86.96;100701.47;5067330;28;20482;-44
2023/05/07 05:08:43;;;;;;;6.28;2.60;;;;;;;13.06;86.78;100701.47;5070380;28;20442;-44
2023/05/07 05:11:10;;;;;;;5.32;2.00;;;;;;;13.06;86.60;100704.25;5072324;28;20048;-45
2023/05/07 05:13:37;;;;;;;8.35;2.20;;;;;;;13.05;86.58;100699.88;5070691;28;20047;-43
2023/05/07 05:16:04;;;;;;;4.28;2.65;;;;;;;13.01;86.52;100704.53;5063948;28;20049;-46
2023/05/07 05:18:31;;;;;;;5.70;2.78;;;;;;;12.95;86.90;100695.66;5069272;28;20377;-44
2023/05/07 05:20:57;;;;;;;9.77;4.03;;;;;;;12.95;86.84;100705.97;5069926;28;20131;-44
2023/05/07 05:23:24;;;;;;;5.70;2.30;;;;;;;12.94;87.06;100704.38;5071032;28;20059;-43
2023/05/07 05:25:56;;;;;;;4.43;2.38;;;;;;;12.94;86.97;100705.19;5067684;28;20157;-44
2023/05/07 05:28:23;;;;;;;8.95;2.65;;;;;;;12.94;87.09;100710.75;5066927;28;20410;-45
2023/05/07 05:30:50;;;;;;;5.40;2.38;;;;;;;12.92;86.94;100712.28;5065197;28;20080;-44
2023/05/07 05:33:17;;;;;;;8.50;2.53;;;;;;;12.88;87.20;100712.19;5065425;28;20048;-45
2023/05/07 05:35:44;;;;;;;9.45;3.05;;;;;;;12.86;87.38;100710.94;5076059;28;20103;-48
2023/05/07 05:38:10;;;;;;;3.15;2.25;;;;;;;12.83;87.89;100718.00;5071077;28;20033;-47
2023/05/07 05:40:37;;;;;;;8.75;3.10;;;;;;;12.88;87.93;100716.94;5053689;28;20144;-44
2023/05/07 05:43:04;;;;;;;4.97;2.47;;;;;;;12.91;88.02;100717.00;5053703;28;20158;-44
2023/05/07 05:45:31;;;;;;;5.80;2.42;;;;;;;12.95;87.96;100712.34;5053731;28;20563;-50
2023/05/07 05:47:57;;;;;;;8.48;2.60;;;;;;;13.01;87.88;100715.63;5078919;28;20555;-44
2023/05/07 05:50:24;;;;;;;9.63;3.90;;;;;;;13.06;87.43;100713.38;5076468;28;20106;-44
2023/05/07 05:52:51;;;;;;;6.25;2.65;;;;;;;13.11;87.43;100715.91;5071145;28;20048;-44
2023/05/07 05:55:18;;;;;;;4.50;2.17;;;;;;;13.19;87.27;100723.25;5070029;28;20071;-44
2023/05/07 05:57:45;;;;;;;3.97;2.55;;;;;;;13.22;87.12;100714.19;5071465;28;20055;-43
2023/05/07 06:00:13;;;;;;;6.63;2.58;;;;;;;13.23;87.13;100717.78;5071029;28;20119;-45
2023/05/07 06:02:40;;;;;;;7.95;3.67;;;;;;;13.23;87.31;100720.56;5069814;28;20136;-44
2023/05/07 06:05:07;;;;;;;7.80;3.63;;;;;;;13.21;87.43;100717.34;5071724;28;20040;-48
2023/05/07 06:07:34;;;;;;;5.50;2.85;;;;;;;13.20;87.52;100718.50;5071174;28;20143;-43
2023/05/07 06:10:01;;;;;;;5.55;2.50;;;;;;;13.18;87.56;100720.84;5075839;28;20040;-48
2023/05/07 06:12:28;;;;;;;7.15;2.60;;;;;;;13.17;87.85;100719.22;5070024;28;20063;-43
2023/05/07 06:14:55;;;;;;;6.85;3.30;;;;;;;13.18;87.63;100726.41;5071062;28;20084;-45
2023/05/07 06:17:22;;;;;;;7.78;2.20;;;;;;;13.16;87.68;100732.31;5070887;28;20044;-44
2023/05/07 06:19:49;;;;;;;5.03;2.38;;;;;;;13.15;87.56;100743.81;5070524;28;20444;-44
2023/05/07 06:22:16;;;;;;;6.15;2.30;;;;;;;13.16;87.66;100731.50;5071378;28;20127;-45
2023/05/07 06:24:43;;;;;;;3.92;2.17;;;;;;;13.20;87.53;100729.63;5073698;28;20129;-43
2023/05/07 06:27:09;;;;;;;3.15;2.10;;;;;;;13.24;87.45;100736.06;5070348;28;20075;-45
2023/05/07 06:29:36;;;;;;;5.80;2.45;;;;;;;13.27;87.54;100747.25;5059527;28;20067;-43
2023/05/07 06:32:11;;;;;;;5.68;2.20;;;;;;;13.33;87.55;100745.00;5070601;28;20410;-43
2023/05/07 06:34:39;;;;;;;5.18;2.60;;;;;;;13.36;87.31;100747.88;5058386;28;20094;-44
2023/05/07 06:37:06;;;;;;;5.15;2.63;;;;;;;13.48;87.25;100758.03;5065071;28;20076;-44
2023/05/07 06:39:33;;;;;;;4.72;2.85;;;;;;;13.60;86.77;100757.91;5067821;28;20043;-46
2023/05/07 06:42:01;;;;;;;6.28;3.30;;;;;;;13.73;86.54;100769.72;5049545;28;20452;-43
2023/05/07 06:44:28;;;;;;;5.70;2.90;;;;;;;13.83;86.11;100774.69;5066003;28;20044;-44
2023/05/07 06:46:55;;;;;;;7.35;2.97;;;;;;;13.93;85.94;100774.91;5064086;28;20134;-45
2023/05/07 06:49:21;;;;;;;8.23;3.80;;;;;;;14.03;85.75;100777.09;5057364;28;20105;-44
2023/05/07 06:51:48;;;;;;;5.20;3.13;;;;;;;14.16;85.70;100783.31;5055681;28;20055;-43
2023/05/07 06:54:16;;;;;;;6.53;3.53;;;;;;;14.29;85.18;100792.31;5059340;28;20436;-44
2023/05/07 06:56:43;;;;;;;4.90;3.08;;;;;;;14.39;84.96;100794.50;5057263;28;20084;-44
2023/05/07 06:59:09;;;;;;;5.97;2.88;;;;;;;14.46;84.79;100786.28;5069036;28;20040;-44
2023/05/07 07:01:37;;;;;;;5.47;2.40;;;;;;;14.51;84.71;100795.13;5070052;28;20079;-44
2023/05/07 07:04:04;;;;;;;9.82;3.85;;;;;;;14.55;84.63;100790.44;5068548;28;20052;-46
2023/05/07 07:06:31;;;;;;;6.65;2.10;;;;;;;14.58;84.54;100800.84;5052149;28;20051;-45
2023/05/07 07:08:59;;;;;;;6.55;2.78;;;;;;;14.64;84.23;100795.75;5069443;28;20159;-48
2023/05/07 07:11:26;;;;;;;4.88;2.10;;;;;;;14.72;84.10;100791.91;5070235;28;20528;-47
2023/05/07 07:13:54;;;;;;;6.75;2.05;;;;;;;14.82;84.03;100804.44;5069817;28;20049;-46
2023/05/07 07:16:21;;;;;;;10.15;2.53;;;;;;;14.91;84.04;100811.38;5052182;28;20044;-48
2023/05/07 07:18:48;;;;;;;5.05;2.22;;;;;;;15.06;83.67;100815.22;5069688;28;20071;-44
2023/05/07 07:21:15;;;;;;;6.40;2.65;;;;;;;15.13;83.07;100804.97;5060621;28;20119;-45
2023/05/07 07:23:42;;;;;;;9.32;3.13;;;;;;;15.17;82.99;100811.41;5074318;28;20068;-44
2023/05/07 07:26:08;;;;;;;5.53;2.33;;;;;;;15.20;82.80;100807.84;5071984;28;20080;-44
2023/05/07 07:28:42;;;;;;;8.63;2.83;;;;;;;15.24;82.58;100802.34;5078139;28;20044;-44
2023/05/07 07:31:11;;;;;;;5.78;2.20;;;;;;;15.27;82.24;100804.38;5082887;28;20048;-43
2023/05/07 07:33:39;;;;;;;6.70;2.08;;;;;;;15.36;82.25;100812.47;5069610;28;20163;-48
2023/05/07 07:36:07;;;;;;;8.45;2.30;;;;;;;15.46;81.87;100811.88;5069214;28;20497;-43
2023/05/07 07:38:34;;;;;;;4.60;1.92;;;;;;;15.61;81.58;100808.09;5064361;28;20040;-44
2023/05/07 07:41:02;;;;;;;7.97;2.10;;;;;;;15.78;81.45;100815.91;5069139;28;20090;-44
2023/05/07 07:43:29;;;;;;;4.75;1.42;;;;;;;15.97;81.57;100804.59;5034207;28;20048;-44
2023/05/07 07:45:55;;;;;;;5.35;1.92;;;;;;;16.12;80.94;100809.19;5064750;28;20131;-44
2023/05/07 07:48:22;;;;;;;3.85;1.63;;;;;;;16.18;80.47;100799.25;5067648;28;20048;-44
2023/05/07 07:50:51;;;;;;;4.68;1.45;;;;;;;16.23;79.76;100812.88;5066763;28;20490;-44
2023/05/07 07:53:18;;;;;;;3.15;1.45;;;;;;;16.25;78.99;100809.72;5066084;28;20044;-45
2023/05/07 07:55:45;;;;;;;6.25;1.67;;;;;;;16.27;78.76;100796.16;5057648;28;20040;-44
2023/05/07 07:58:12;;;;;;;5.43;1.60;;;;;;;16.32;77.94;100805.00;5068804;28;20127;-43
2023/05/07 08:00:39;;;;;;;5.22;1.80;;;;;;;16.37;78.07;100809.44;5068576;28;20044;-44
2023/05/07 08:03:08;;;;;;;8.13;1.92;;;;;;;16.50;77.56;100812.75;5069238;28;20047;-43
2023/05/07 08:05:36;;;;;;;8.77;2.20;;;;;;;16.62;77.36;100812.53;5068560;28;20449;-44
2023/05/07 08:08:03;;;;;;;9.30;2.80;;;;;;;16.75;76.50;100820.25;5068792;28;20436;-44
2023/05/07 08:10:33;;;;;;;6.38;2.05;;;;;;;16.94;76.10;100811.63;5052986;28;20386;-43
2023/05/07 08:13:03;;;;;;;7.38;1.92;;;;;;;17.12;74.94;100820.19;5061409;28;20694;-49
2023/05/07 08:15:30;;;;;;;3.28;1.73;;;;;;;17.09;74.22;100820.13;5052112;28;20033;-44
2023/05/07 08:17:59;;;;;;;8.95;2.13;;;;;;;16.92;73.36;100821.59;5052697;28;20111;-46
2023/05/07 08:20:27;;;;;;;6.70;2.20;;;;;;;16.88;73.18;100809.59;5069655;28;20485;-44
2023/05/07 08:22:53;;;;;;;2.67;1.73;;;;;;;17.31;72.83;100811.53;5071077;28;20051;-45
2023/05/07 08:25:20;;;;;;;2.67;1.60;;;;;;;18.07;71.35;100805.97;5069963;28;20044;-44
2023/05/07 08:27:47;;;;;;;6.38;1.73;;;;;;;18.80;70.24;100813.78;5068973;28;20518;-44
2023/05/07 08:30:14;;;;;;;6.10;1.60;;;;;;;19.37;69.13;100825.00;5067590;28;20052;-44
2023/05/07 08:32:41;;;;;;;2.67;1.20;;;;;;;19.88;67.91;100816.88;5070862;28;20150;-44
2023/05/07 08:35:09;;;;;;;5.82;1.40;;;;;;;20.26;66.22;100811.53;5068226;28;20678;-47
2023/05/07 08:37:35;;;;;;;5.80;1.58;;;;;;;20.63;64.82;100820.16;5062395;28;20497;-45
2023/05/07 08:40:03;;;;;;;3.28;1.30;;;;;;;20.99;63.84;100823.56;5076893;28;20456;-44
2023/05/07 08:42:36;;;;;;;4.00;1.88;;;;;;;21.43;62.68;100815.13;5070998;28;20047;-47
2023/05/07 08:45:05;;;;;;;4.40;1.58;;;;;;;21.86;61.08;100826.78;5065243;28;20052;-45
2023/05/07 08:47:42;;;;;;;2.15;0.98;;;;;;;22.07;60.57;100832.19;5058248;28;20063;-44
2023/05/07 08:50:09;;;;;;;4.10;1.15;;;;;;;22.40;59.34;100828.50;5062972;28;20098;-46
2023/05/07 08:52:37;;;;;;;4.05;1.00;;;;;;;22.90;57.43;100827.84;5057564;28;20044;-44
2023/05/07 08:55:04;;;;;;;4.00;1.17;;;;;;;23.09;56.41;100834.78;5062599;28;20044;-44
2023/05/07 08:57:31;;;;;;;4.07;1.10;;;;;;;23.61;55.66;100845.22;5063262;28;20045;-47
2023/05/07 09:00:04;;;;;;;2.97;1.40;;;;;;;24.14;54.10;100837.75;5062390;28;20410;-44
2023/05/07 09:02:30;;;;;;;3.30;1.50;;;;;;;24.52;53.10;100843.78;5040317;28;20041;-45
2023/05/07 09:04:57;;;;;;;4.47;1.10;;;;;;;24.85;51.92;100839.03;5044770;28;20045;-45
2023/05/07 09:07:26;;;;;;;4.10;1.40;;;;;;;25.02;50.78;100840.66;5043532;28;20053;-49
2023/05/07 09:09:54;;;;;;;3.63;1.40;;;;;;;25.18;50.38;100847.09;5039771;28;20087;-45
2023/05/07 09:12:21;;;;;;;5.38;1.35;;;;;;;25.22;49.46;100842.16;5045653;28;20148;-45
2023/05/07 09:14:49;;;;;;;3.13;1.25;;;;;;;25.24;49.34;100836.81;5043816;28;20044;-44
2023/05/07 09:17:16;;;;;;;3.63;1.77;;;;;;;25.29;48.47;100835.50;5044881;28;20490;-46
2023/05/07 09:19:47;;;;;;;4.78;1.77;;;;;;;25.30;48.13;100842.75;5039733;28;20049;-47
2023/05/07 09:22:14;;;;;;;6.15;1.48;;;;;;;25.07;47.84;100842.94;5046528;28;20530;-47
2023/05/07 09:24:47;;;;;;;5.75;1.50;;;;;;;24.45;48.90;100847.56;5051069;28;20140;-45
2023/05/07 09:27:14;;;;;;;3.45;1.00;;;;;;;23.94;48.36;100839.72;5044473;28;20549;-44
2023/05/07 09:29:43;;;;;;;2.20;1.35;;;;;;;23.15;49.42;100841.53;5045923;28;20034;-45
2023/05/07 09:32:09;;;;;;;5.53;1.55;;;;;;;22.48;50.42;100839.72;5044223;28;20037;-46
2023/05/07 09:34:36;;;;;;;4.82;1.45;;;;;;;21.78;51.21;100842.16;5046657;28;20049;-45
2023/05/07 09:37:04;;;;;;;4.95;1.40;;;;;;;21.15;52.38;100827.44;5046352;28;20128;-44
2023/05/07 09:39:47;;;;;;;4.68;1.38;;;;;;;20.67;53.71;100834.22;5047904;28;20083;-46
2023/05/07 09:42:14;;;;;;;5.15;1.67;;;;;;;20.82;53.77;100836.53;5049412;28;20051;-44
2023/05/07 09:44:44;;;;;;;3.47;1.77;;;;;;;21.29;54.09;100834.19;5050398;28;20372;-45
2023/05/07 09:47:17;;;;;;;3.30;1.50;;;;;;;22.07;53.04;100835.00;5050049;28;20498;-44
2023/05/07 09:49:47;;;;;;;4.85;1.75;;;;;;;22.64;51.62;100832.22;5051521;28;20045;-45
2023/05/07 09:52:15;;;;;;;1.75;1.35;;;;;;;22.10;52.02;100834.16;5044971;28;20084;-47
2023/05/07 09:54:43;;;;;;;4.50;1.30;;;;;;;21.30;52.80;100836.59;5044585;28;20056;-45
2023/05/07 09:57:14;;;;;;;3.67;1.48;;;;;;;20.55;53.39;100833.47;5035194;28;20085;-47
2023/05/07 09:59:43;;;;;;;6.10;1.90;;;;;;;19.97;54.67;100830.50;5049528;28;20116;-45
2023/05/07 10:02:12;;;;;;;4.68;1.23;;;;;;;19.47;55.55;100838.25;5059928;28;20051;-45
2023/05/07 10:04:40;;;;;;;4.65;1.92;;;;;;;19.12;56.34;100832.63;5049323;28;20072;-47
2023/05/07 10:07:08;;;;;;;2.20;1.00;;;;;;;18.89;56.77;100840.66;5069087;28;20106;-45
2023/05/07 10:09:38;;;;;;;3.83;1.48;;;;;;;18.81;56.93;100831.44;5069795;28;20094;-49
2023/05/07 10:12:06;;;;;;;3.67;1.02;;;;;;;18.81;57.15;100821.00;5063233;28;20047;-45
2023/05/07 10:14:33;;;;;;;3.67;1.30;;;;;;;18.78;57.66;100816.19;5070231;28;20052;-45
2023/05/07 10:17:02;;;;;;;5.35;1.75;;;;;;;18.70;58.27;100814.59;5069198;28;20052;-44
2023/05/07 10:19:29;;;;;;;1.60;1.20;;;;;;;19.46;57.56;100817.00;5069263;28;20047;-44
2023/05/07 10:22:02;;;;;;;7.20;1.55;;;;;;;20.12;55.87;100815.19;5069775;28;20049;-49
2023/05/07 10:24:39;;;;;;;2.65;1.13;;;;;;;20.73;54.91;100812.88;5066664;28;20056;-45
2023/05/07 10:27:10;;;;;;;3.63;2.10;;;;;;;21.25;53.73;100808.88;5069840;28;20056;-44
2023/05/07 10:29:49;;;;;;;2.60;1.00;;;;;;;21.63;53.28;100812.53;5066982;28;20075;-44
2023/05/07 10:32:28;;;;;;;2.97;1.02;;;;;;;21.95;52.74;100812.19;5070809;28;20316;-44
2023/05/07 10:34:58;;;;;;;4.85;1.50;;;;;;;22.12;52.12;100820.44;5071051;28;20052;-44
2023/05/07 10:37:26;;;;;;;4.13;1.02;;;;;;;22.31;51.69;100824.63;5070240;28;20032;-44
2023/05/07 10:39:53;;;;;;;3.13;1.10;;;;;;;22.25;51.41;100838.38;5064155;28;20052;-48
2023/05/07 10:42:20;;;;;;;4.30;1.27;;;;;;;22.04;51.77;100833.00;5068876;28;20055;-45
2023/05/07 10:44:46;;;;;;;4.18;1.38;;;;;;;21.92;51.88;100832.78;5067612;28;20102;-44
2023/05/07 10:47:18;;;;;;;4.65;1.40;;;;;;;21.70;52.30;100824.53;5067566;28;20102;-52
2023/05/07 10:49:45;;;;;;;3.13;1.83;;;;;;;21.46;52.91;100819.94;5069550;28;20507;-45
2023/05/07 10:52:17;;;;;;;5.00;2.83;;;;;;;21.22;53.68;100832.22;5062301;28;20045;-45
2023/05/07 10:54:46;;;;;;;3.65;1.40;;;;;;;21.01;54.09;100827.56;5068826;28;20037;-47
2023/05/07 10:57:31;;;;;;;3.58;1.20;;;;;;;20.81;54.75;100825.69;5067856;28;20497;-48
2023/05/07 10:59:58;;;;;;;6.22;1.88;;;;;;;20.63;54.84;100812.53;5065267;28;20103;-50
2023/05/07 11:03:14;;;;;;;2.72;1.95;;;;;;;20.53;55.48;100819.03;5068423;28;20052;-47
2023/05/07 11:05:42;;;;;;;3.13;1.70;;;;;;;20.31;55.48;100814.72;5047136;28;20037;-46
2023/05/07 11:08:09;;;;;;;3.25;1.75;;;;;;;20.18;56.07;100807.13;5066404;28;20041;-46
2023/05/07 11:10:56;;;;;;;2.17;1.50;;;;;;;20.21;56.35;100809.13;5059456;28;20405;-51
2023/05/07 11:13:44;;;;;;;2.30;1.40;;;;;;;20.11;56.25;100813.59;5052132;28;20040;-46
2023/05/07 11:16:27;;;;;;;3.20;1.35;;;;;;;20.09;56.97;100821.66;5069902;28;20047;-46
2023/05/07 11:18:55;;;;;;;4.22;1.63;;;;;;;20.01;57.12;100809.59;5068033;28;20133;-46
2023/05/07 11:21:37;;;;;;;3.28;1.40;;;;;;;19.91;56.70;100824.50;5065196;28;20041;-50
2023/05/07 11:24:05;;;;;;;3.37;1.40;;;;;;;19.82;57.01;100818.53;5064539;28;20044;-46
2023/05/07 11:26:50;;;;;;;2.75;1.50;;;;;;;19.75;57.07;100817.75;5068316;28;20144;-47
2023/05/07 11:29:19;;;;;;;4.72;1.67;;;;;;;19.78;57.23;100809.31;5063557;28;20068;-46